sensor_id;sensor_type;location;lat;lon;timestamp;pressure;altitude;pressure_sealevel;temperature;humidity
11830;BME280;5972;42.134;24.718;2023-03-19T00:00:42;100312.94;;;4.86;97.16
11830;BME280;5972;42.134;24.718;2023-03-19T00:03:10;100304.41;;;4.84;97.27
11830;BME280;5972;42.134;24.718;2023-03-19T00:05:37;100300.91;;;4.84;96.58
11830;BME280;5972;42.134;24.718;2023-03-19T00:08:04;100302.06;;;4.78;97.37
11830;BME280;5972;42.134;24.718;2023-03-19T00:10:32;100309.50;;;4.81;97.01
11830;BME280;5972;42.134;24.718;2023-03-19T00:13:03;100309.78;;;4.79;97.42
11830;BME280;5972;42.134;24.718;2023-03-19T00:15:29;100317.63;;;4.76;97.48
11830;BME280;5972;42.134;24.718;2023-03-19T00:17:56;100297.91;;;4.67;99.19
11830;BME280;5972;42.134;24.718;2023-03-19T00:20:23;100308.09;;;4.65;98.41
11830;BME280;5972;42.134;24.718;2023-03-19T00:22:50;100293.03;;;4.45;99.80
11830;BME280;5972;42.134;24.718;2023-03-19T00:25:17;100295.88;;;4.53;100.00
11830;BME280;5972;42.134;24.718;2023-03-19T00:27:45;100288.22;;;4.42;100.00
11830;BME280;5972;42.134;24.718;2023-03-19T00:30:12;100289.94;;;4.33;100.00
11830;BME280;5972;42.134;24.718;2023-03-19T00:32:39;100288.41;;;4.27;100.00
11830;BME280;5972;42.134;24.718;2023-03-19T00:35:07;100286.78;;;4.26;100.00
11830;BME280;5972;42.134;24.718;2023-03-19T00:37:34;100281.28;;;4.17;100.00
11830;BME280;5972;42.134;24.718;2023-03-19T00:40:02;100275.09;;;4.16;100.00
11830;BME280;5972;42.134;24.718;2023-03-19T00:42:29;100269.22;;;4.14;100.00
11830;BME280;5972;42.134;24.718;2023-03-19T00:44:57;100269.31;;;4.04;100.00
11830;BME280;5972;42.134;24.718;2023-03-19T00:47:24;100223.75;;;3.81;100.00
11830;BME280;5972;42.134;24.718;2023-03-19T00:49:52;100268.41;;;4.14;100.00
11830;BME280;5972;42.134;24.718;2023-03-19T00:52:18;100269.81;;;4.11;100.00
11830;BME280;5972;42.134;24.718;2023-03-19T00:54:45;100266.59;;;4.09;100.00
11830;BME280;5972;42.134;24.718;2023-03-19T00:57:12;100262.59;;;4.07;100.00
11830;BME280;5972;42.134;24.718;2023-03-19T00:59:39;100262.91;;;4.05;100.00
11830;BME280;5972;42.134;24.718;2023-03-19T01:02:09;100257.59;;;4.00;100.00
11830;BME280;5972;42.134;24.718;2023-03-19T01:04:36;100258.38;;;4.01;100.00
11830;BME280;5972;42.134;24.718;2023-03-19T01:07:09;100259.03;;;3.88;100.00
11830;BME280;5972;42.134;24.718;2023-03-19T01:09:35;100252.56;;;3.94;100.00
11830;BME280;5972;42.134;24.718;2023-03-19T01:12:02;100251.75;;;3.93;100.00
11830;BME280;5972;42.134;24.718;2023-03-19T01:14:30;100258.31;;;3.77;100.00
11830;BME280;5972;42.134;24.718;2023-03-19T01:16:56;100254.44;;;3.59;100.00
11830;BME280;5972;42.134;24.718;2023-03-19T01:19:25;100243.28;;;3.81;100.00
11830;BME280;5972;42.134;24.718;2023-03-19T01:21:52;100249.97;;;3.84;100.00
11830;BME280;5972;42.134;24.718;2023-03-19T01:24:18;100244.03;;;3.87;100.00
11830;BME280;5972;42.134;24.718;2023-03-19T01:26:45;100242.97;;;3.88;100.00
11830;BME280;5972;42.134;24.718;2023-03-19T01:29:12;100246.94;;;3.90;100.00
11830;BME280;5972;42.134;24.718;2023-03-19T01:31:41;100247.47;;;3.92;100.00
11830;BME280;5972;42.134;24.718;2023-03-19T01:34:08;100246.44;;;3.88;100.00
11830;BME280;5972;42.134;24.718;2023-03-19T01:36:36;100250.19;;;3.87;100.00
11830;BME280;5972;42.134;24.718;2023-03-19T01:39:03;100257.16;;;3.88;100.00
11830;BME280;5972;42.134;24.718;2023-03-19T01:41:30;100251.81;;;3.88;100.00
11830;BME280;5972;42.134;24.718;2023-03-19T01:43:56;100260.97;;;3.82;100.00
11830;BME280;5972;42.134;24.718;2023-03-19T01:46:26;100250.72;;;3.89;100.00
11830;BME280;5972;42.134;24.718;2023-03-19T01:48:56;100246.44;;;3.88;100.00
11830;BME280;5972;42.134;24.718;2023-03-19T01:51:25;100248.31;;;3.88;100.00
11830;BME280;5972;42.134;24.718;2023-03-19T01:53:58;100252.06;;;3.87;100.00
11830;BME280;5972;42.134;24.718;2023-03-19T01:56:28;100216.44;;;3.57;100.00
11830;BME280;5972;42.134;24.718;2023-03-19T01:58:59;100251.09;;;3.78;100.00
11830;BME280;5972;42.134;24.718;2023-03-19T02:01:31;100259.66;;;3.74;100.00
11830;BME280;5972;42.134;24.718;2023-03-19T02:03:59;100236.25;;;3.61;100.00
11830;BME280;5972;42.134;24.718;2023-03-19T02:06:26;100252.72;;;3.73;100.00
11830;BME280;5972;42.134;24.718;2023-03-19T02:08:56;100259.41;;;3.76;100.00
11830;BME280;5972;42.134;24.718;2023-03-19T02:11:24;100248.50;;;3.67;100.00
11830;BME280;5972;42.134;24.718;2023-03-19T02:13:51;100264.47;;;3.78;100.00
11830;BME280;5972;42.134;24.718;2023-03-19T02:16:18;100264.16;;;3.84;100.00
11830;BME280;5972;42.134;24.718;2023-03-19T02:18:45;100262.47;;;3.93;100.00
11830;BME280;5972;42.134;24.718;2023-03-19T02:21:14;100265.03;;;4.03;100.00
11830;BME280;5972;42.134;24.718;2023-03-19T02:24:04;100259.97;;;4.02;100.00
11830;BME280;5972;42.134;24.718;2023-03-19T02:26:35;100273.22;;;4.17;100.00
11830;BME280;5972;42.134;24.718;2023-03-19T02:29:02;100274.72;;;4.28;100.00
11830;BME280;5972;42.134;24.718;2023-03-19T02:31:30;100278.66;;;4.36;100.00
11830;BME280;5972;42.134;24.718;2023-03-19T02:34:02;100279.34;;;4.46;100.00
11830;BME280;5972;42.134;24.718;2023-03-19T02:36:33;100276.56;;;4.56;99.04
11830;BME280;5972;42.134;24.718;2023-03-19T02:39:05;100284.78;;;4.65;97.06
11830;BME280;5972;42.134;24.718;2023-03-19T02:41:34;100284.19;;;4.68;95.95
11830;BME280;5972;42.134;24.718;2023-03-19T02:44:03;100287.25;;;4.80;94.98
11830;BME280;5972;42.134;24.718;2023-03-19T02:46:30;100289.16;;;4.80;94.01
11830;BME280;5972;42.134;24.718;2023-03-19T02:48:57;100301.72;;;4.84;92.18
11830;BME280;5972;42.134;24.718;2023-03-19T02:51:24;100305.69;;;4.87;91.61
11830;BME280;5972;42.134;24.718;2023-03-19T02:53:51;100300.66;;;4.80;91.66
11830;BME280;5972;42.134;24.718;2023-03-19T02:56:18;100296.28;;;4.89;91.31
11830;BME280;5972;42.134;24.718;2023-03-19T02:58:46;100296.22;;;4.94;89.85
11830;BME280;5972;42.134;24.718;2023-03-19T03:01:13;100289.78;;;4.95;88.59
11830;BME280;5972;42.134;24.718;2023-03-19T03:03:40;100292.47;;;4.95;87.19
11830;BME280;5972;42.134;24.718;2023-03-19T03:06:07;100299.91;;;4.98;87.14
11830;BME280;5972;42.134;24.718;2023-03-19T03:08:33;100290.22;;;5.02;87.59
11830;BME280;5972;42.134;24.718;2023-03-19T03:11:01;100286.72;;;5.02;87.98
11830;BME280;5972;42.134;24.718;2023-03-19T03:13:27;100286.16;;;5.05;88.17
11830;BME280;5972;42.134;24.718;2023-03-19T03:15:56;100285.44;;;4.99;88.01
11830;BME280;5972;42.134;24.718;2023-03-19T03:18:23;100292.22;;;4.92;89.14
11830;BME280;5972;42.134;24.718;2023-03-19T03:20:50;100292.59;;;5.04;88.68
11830;BME280;5972;42.134;24.718;2023-03-19T03:23:18;100299.56;;;5.05;88.54
11830;BME280;5972;42.134;24.718;2023-03-19T03:25:47;100295.50;;;4.65;92.82
11830;BME280;5972;42.134;24.718;2023-03-19T03:28:14;100300.72;;;4.75;93.03
11830;BME280;5972;42.134;24.718;2023-03-19T03:30:42;100295.31;;;4.80;91.80
11830;BME280;5972;42.134;24.718;2023-03-19T03:33:10;100297.66;;;4.87;91.24
11830;BME280;5972;42.134;24.718;2023-03-19T03:35:37;100296.50;;;4.93;91.35
11830;BME280;5972;42.134;24.718;2023-03-19T03:38:04;100303.69;;;4.97;90.13
11830;BME280;5972;42.134;24.718;2023-03-19T03:40:31;100308.41;;;5.06;89.79
11830;BME280;5972;42.134;24.718;2023-03-19T03:42:58;100276.41;;;4.90;89.45
11830;BME280;5972;42.134;24.718;2023-03-19T03:45:25;100303.00;;;5.11;87.83
11830;BME280;5972;42.134;24.718;2023-03-19T03:47:52;100305.38;;;5.12;85.91
11830;BME280;5972;42.134;24.718;2023-03-19T03:50:20;100311.53;;;5.13;85.79
11830;BME280;5972;42.134;24.718;2023-03-19T03:52:47;100302.41;;;5.14;85.64
11830;BME280;5972;42.134;24.718;2023-03-19T03:55:14;100312.06;;;5.15;86.15
11830;BME280;5972;42.134;24.718;2023-03-19T03:57:41;100309.97;;;5.12;86.71
11830;BME280;5972;42.134;24.718;2023-03-19T04:00:09;100315.00;;;5.13;86.69
11830;BME280;5972;42.134;24.718;2023-03-19T04:02:36;100315.81;;;5.14;87.05
11830;BME280;5972;42.134;24.718;2023-03-19T04:05:04;100317.75;;;5.08;86.97
11830;BME280;5972;42.134;24.718;2023-03-19T04:07:33;100317.56;;;5.05;89.04
11830;BME280;5972;42.134;24.718;2023-03-19T04:10:00;100316.16;;;5.07;89.00
11830;BME280;5972;42.134;24.718;2023-03-19T04:12:27;100320.34;;;5.18;87.47
11830;BME280;5972;42.134;24.718;2023-03-19T04:14:54;100311.53;;;5.13;87.15
11830;BME280;5972;42.134;24.718;2023-03-19T04:17:20;100324.59;;;5.19;85.92
11830;BME280;5972;42.134;24.718;2023-03-19T04:19:48;100319.53;;;5.18;85.47
11830;BME280;5972;42.134;24.718;2023-03-19T04:22:15;100323.78;;;5.19;86.46
11830;BME280;5972;42.134;24.718;2023-03-19T04:24:43;100321.91;;;5.19;86.34
11830;BME280;5972;42.134;24.718;2023-03-19T04:27:10;100322.22;;;5.18;84.88
11830;BME280;5972;42.134;24.718;2023-03-19T04:29:37;100325.97;;;5.17;85.08
11830;BME280;5972;42.134;24.718;2023-03-19T04:32:04;100311.91;;;5.06;85.66
11830;BME280;5972;42.134;24.718;2023-03-19T04:34:31;100331.47;;;5.07;85.30
11830;BME280;5972;42.134;24.718;2023-03-19T04:36:59;100333.56;;;5.10;86.20
11830;BME280;5972;42.134;24.718;2023-03-19T04:39:26;100330.28;;;5.18;86.22
11830;BME280;5972;42.134;24.718;2023-03-19T04:41:54;100328.88;;;5.20;86.20
11830;BME280;5972;42.134;24.718;2023-03-19T04:44:37;100330.13;;;5.28;85.77
11830;BME280;5972;42.134;24.718;2023-03-19T04:47:05;100323.03;;;5.37;84.75
11830;BME280;5972;42.134;24.718;2023-03-19T04:49:32;100322.94;;;5.42;82.24
11830;BME280;5972;42.134;24.718;2023-03-19T04:51:59;100324.63;;;5.38;81.83
11830;BME280;5972;42.134;24.718;2023-03-19T04:54:26;100330.13;;;5.47;80.97
11830;BME280;5972;42.134;24.718;2023-03-19T04:56:54;100330.88;;;5.33;81.21
11830;BME280;5972;42.134;24.718;2023-03-19T04:59:21;100328.66;;;5.35;81.04
11830;BME280;5972;42.134;24.718;2023-03-19T05:01:48;100332.81;;;5.28;81.96
11830;BME280;5972;42.134;24.718;2023-03-19T05:04:14;100331.06;;;5.37;81.62
11830;BME280;5972;42.134;24.718;2023-03-19T05:06:42;100335.56;;;5.41;79.45
11830;BME280;5972;42.134;24.718;2023-03-19T05:09:09;100338.84;;;5.38;79.50
11830;BME280;5972;42.134;24.718;2023-03-19T05:11:35;100338.25;;;5.41;78.98
11830;BME280;5972;42.134;24.718;2023-03-19T05:14:04;100348.72;;;5.43;79.63
11830;BME280;5972;42.134;24.718;2023-03-19T05:16:31;100347.47;;;5.54;79.90
11830;BME280;5972;42.134;24.718;2023-03-19T05:18:59;100360.34;;;5.57;79.25
11830;BME280;5972;42.134;24.718;2023-03-19T05:21:26;100357.72;;;5.71;78.33
11830;BME280;5972;42.134;24.718;2023-03-19T05:23:53;100357.91;;;5.74;76.32
11830;BME280;5972;42.134;24.718;2023-03-19T05:26:21;100362.94;;;5.81;75.67
11830;BME280;5972;42.134;24.718;2023-03-19T05:28:48;100348.63;;;5.85;73.95
11830;BME280;5972;42.134;24.718;2023-03-19T05:31:16;100353.22;;;6.04;72.94
11830;BME280;5972;42.134;24.718;2023-03-19T05:33:43;100338.09;;;6.08;72.23
11830;BME280;5972;42.134;24.718;2023-03-19T05:36:10;100351.59;;;6.21;70.79
11830;BME280;5972;42.134;24.718;2023-03-19T05:38:37;100344.03;;;6.23;71.60
11830;BME280;5972;42.134;24.718;2023-03-19T05:41:05;100356.59;;;6.42;70.83
11830;BME280;5972;42.134;24.718;2023-03-19T05:43:32;100334.63;;;6.07;72.00
11830;BME280;5972;42.134;24.718;2023-03-19T05:45:59;100346.84;;;6.32;71.63
11830;BME280;5972;42.134;24.718;2023-03-19T05:48:27;100349.09;;;6.71;70.46
11830;BME280;5972;42.134;24.718;2023-03-19T05:50:54;100355.06;;;7.23;69.36
11830;BME280;5972;42.134;24.718;2023-03-19T05:53:21;100364.69;;;8.09;62.11
11830;BME280;5972;42.134;24.718;2023-03-19T05:55:48;100364.97;;;8.44;58.01
11830;BME280;5972;42.134;24.718;2023-03-19T05:58:15;100357.91;;;8.96;55.30
11830;BME280;5972;42.134;24.718;2023-03-19T06:00:42;100363.19;;;9.75;52.22
11830;BME280;5972;42.134;24.718;2023-03-19T06:03:15;100358.63;;;11.32;48.26
11830;BME280;5972;42.134;24.718;2023-03-19T06:05:43;100360.69;;;12.51;45.26
11830;BME280;5972;42.134;24.718;2023-03-19T06:08:25;100368.22;;;12.90;43.09
11830;BME280;5972;42.134;24.718;2023-03-19T06:10:52;100335.63;;;13.03;41.78
11830;BME280;5972;42.134;24.718;2023-03-19T06:13:19;100377.44;;;13.35;41.53
11830;BME280;5972;42.134;24.718;2023-03-19T06:15:47;100381.78;;;13.76;40.27
11830;BME280;5972;42.134;24.718;2023-03-19T06:18:14;100384.31;;;14.80;39.21
11830;BME280;5972;42.134;24.718;2023-03-19T06:20:42;100376.25;;;15.34;37.41
11830;BME280;5972;42.134;24.718;2023-03-19T06:23:09;100371.38;;;15.74;36.48
11830;BME280;5972;42.134;24.718;2023-03-19T06:25:36;100373.50;;;15.65;36.55
11830;BME280;5972;42.134;24.718;2023-03-19T06:28:03;100381.41;;;15.90;35.88
11830;BME280;5972;42.134;24.718;2023-03-19T06:30:30;100372.09;;;16.10;35.03
11830;BME280;5972;42.134;24.718;2023-03-19T06:32:57;100364.38;;;16.35;34.60
11830;BME280;5972;42.134;24.718;2023-03-19T06:35:24;100365.28;;;16.61;34.57
11830;BME280;5972;42.134;24.718;2023-03-19T06:37:53;100379.56;;;17.72;32.96
11830;BME280;5972;42.134;24.718;2023-03-19T06:40:20;100372.81;;;18.63;31.62
11830;BME280;5972;42.134;24.718;2023-03-19T06:42:47;100338.84;;;19.26;30.33
11830;BME280;5972;42.134;24.718;2023-03-19T06:45:15;100367.34;;;20.66;28.91
11830;BME280;5972;42.134;24.718;2023-03-19T06:47:46;100357.94;;;20.95;27.90
11830;BME280;5972;42.134;24.718;2023-03-19T06:50:14;100359.88;;;21.20;27.79
11830;BME280;5972;42.134;24.718;2023-03-19T06:52:42;100360.09;;;22.00;27.17
11830;BME280;5972;42.134;24.718;2023-03-19T06:55:11;100357.69;;;22.12;26.69
11830;BME280;5972;42.134;24.718;2023-03-19T06:57:38;100360.66;;;22.43;26.25
11830;BME280;5972;42.134;24.718;2023-03-19T07:00:06;100356.78;;;22.95;25.30
11830;BME280;5972;42.134;24.718;2023-03-19T07:02:34;100357.22;;;23.31;25.64
11830;BME280;5972;42.134;24.718;2023-03-19T07:05:01;100354.34;;;23.42;25.23
11830;BME280;5972;42.134;24.718;2023-03-19T07:07:28;100346.88;;;22.98;25.55
11830;BME280;5972;42.134;24.718;2023-03-19T07:09:55;100351.25;;;22.95;25.64
11830;BME280;5972;42.134;24.718;2023-03-19T07:12:24;100355.25;;;23.32;25.20
11830;BME280;5972;42.134;24.718;2023-03-19T07:14:52;100348.16;;;23.31;25.34
11830;BME280;5972;42.134;24.718;2023-03-19T07:17:20;100352.97;;;24.28;24.22
11830;BME280;5972;42.134;24.718;2023-03-19T07:19:47;100342.59;;;24.06;24.16
11830;BME280;5972;42.134;24.718;2023-03-19T07:22:14;100346.03;;;24.13;23.52
11830;BME280;5972;42.134;24.718;2023-03-19T07:24:41;100340.16;;;24.08;23.74
11830;BME280;5972;42.134;24.718;2023-03-19T07:27:08;100341.94;;;23.23;24.71
11830;BME280;5972;42.134;24.718;2023-03-19T07:29:36;100338.97;;;23.41;24.49
11830;BME280;5972;42.134;24.718;2023-03-19T07:32:03;100341.19;;;23.15;24.65
11830;BME280;5972;42.134;24.718;2023-03-19T07:34:30;100338.94;;;23.44;24.91
11830;BME280;5972;42.134;24.718;2023-03-19T07:36:57;100337.88;;;23.31;24.58
11830;BME280;5972;42.134;24.718;2023-03-19T07:39:23;100328.53;;;23.63;24.39
11830;BME280;5972;42.134;24.718;2023-03-19T07:41:50;100334.38;;;23.68;24.67
11830;BME280;5972;42.134;24.718;2023-03-19T07:44:18;100332.94;;;23.87;23.60
11830;BME280;5972;42.134;24.718;2023-03-19T07:46:46;100316.13;;;24.35;23.69
11830;BME280;5972;42.134;24.718;2023-03-19T07:49:13;100316.72;;;24.73;23.07
11830;BME280;5972;42.134;24.718;2023-03-19T07:51:39;100294.16;;;24.51;23.04
11830;BME280;5972;42.134;24.718;2023-03-19T07:54:06;100324.16;;;24.53;22.86
11830;BME280;5972;42.134;24.718;2023-03-19T07:56:33;100327.28;;;24.55;22.99
11830;BME280;5972;42.134;24.718;2023-03-19T07:59:00;100329.66;;;23.24;24.13
11830;BME280;5972;42.134;24.718;2023-03-19T08:01:27;100318.19;;;24.54;22.75
11830;BME280;5972;42.134;24.718;2023-03-19T08:03:55;100324.53;;;24.55;22.79
11830;BME280;5972;42.134;24.718;2023-03-19T08:06:22;100311.63;;;25.18;22.34
11830;BME280;5972;42.134;24.718;2023-03-19T08:08:49;100324.22;;;25.42;22.11
11830;BME280;5972;42.134;24.718;2023-03-19T08:11:15;100320.91;;;25.90;21.95
11830;BME280;5972;42.134;24.718;2023-03-19T08:13:42;100322.91;;;25.07;22.44
11830;BME280;5972;42.134;24.718;2023-03-19T08:16:09;100312.22;;;24.82;22.40
11830;BME280;5972;42.134;24.718;2023-03-19T08:18:36;100320.28;;;25.63;22.18
11830;BME280;5972;42.134;24.718;2023-03-19T08:21:05;100313.00;;;25.89;21.69
11830;BME280;5972;42.134;24.718;2023-03-19T08:23:32;100308.66;;;21.57;25.53
11830;BME280;5972;42.134;24.718;2023-03-19T08:25:59;100310.69;;;22.89;24.80
11830;BME280;5972;42.134;24.718;2023-03-19T08:28:26;100299.31;;;22.83;24.05
11830;BME280;5972;42.134;24.718;2023-03-19T08:30:53;100306.72;;;23.34;23.82
11830;BME280;5972;42.134;24.718;2023-03-19T08:33:21;100300.19;;;24.16;23.03
11830;BME280;5972;42.134;24.718;2023-03-19T08:35:48;100293.53;;;25.33;21.93
11830;BME280;5972;42.134;24.718;2023-03-19T08:38:16;100291.13;;;26.11;20.74
11830;BME280;5972;42.134;24.718;2023-03-19T08:40:44;100298.94;;;26.68;20.04
11830;BME280;5972;42.134;24.718;2023-03-19T08:43:11;100293.81;;;26.99;19.95
11830;BME280;5972;42.134;24.718;2023-03-19T08:45:37;100286.81;;;27.23;19.82
11830;BME280;5972;42.134;24.718;2023-03-19T08:48:04;100265.19;;;27.43;18.85
11830;BME280;5972;42.134;24.718;2023-03-19T08:50:31;100290.63;;;27.29;19.31
11830;BME280;5972;42.134;24.718;2023-03-19T08:52:58;100282.19;;;26.23;20.07
11830;BME280;5972;42.134;24.718;2023-03-19T08:55:26;100279.66;;;26.28;20.37
11830;BME280;5972;42.134;24.718;2023-03-19T08:57:53;100289.53;;;27.10;20.02
11830;BME280;5972;42.134;24.718;2023-03-19T09:00:20;100289.03;;;26.83;19.17
11830;BME280;5972;42.134;24.718;2023-03-19T09:02:47;100289.28;;;27.05;19.05
11830;BME280;5972;42.134;24.718;2023-03-19T09:05:14;100277.69;;;26.45;19.97
11830;BME280;5972;42.134;24.718;2023-03-19T09:07:41;100281.25;;;27.23;19.34
11830;BME280;5972;42.134;24.718;2023-03-19T09:10:09;100280.53;;;27.48;19.14
11830;BME280;5972;42.134;24.718;2023-03-19T09:12:37;100272.88;;;27.39;18.95
11830;BME280;5972;42.134;24.718;2023-03-19T09:15:05;100269.06;;;27.62;19.11
11830;BME280;5972;42.134;24.718;2023-03-19T09:17:32;100272.94;;;28.19;18.52
11830;BME280;5972;42.134;24.718;2023-03-19T09:19:59;100256.34;;;26.91;19.29
11830;BME280;5972;42.134;24.718;2023-03-19T09:22:26;100249.75;;;25.44;20.56
11830;BME280;5972;42.134;24.718;2023-03-19T09:24:54;100255.41;;;27.39;19.06
11830;BME280;5972;42.134;24.718;2023-03-19T09:27:21;100247.53;;;28.42;18.72
11830;BME280;5972;42.134;24.718;2023-03-19T09:29:49;100242.41;;;28.15;18.50
11830;BME280;5972;42.134;24.718;2023-03-19T09:32:16;100234.91;;;28.50;18.36
11830;BME280;5972;42.134;24.718;2023-03-19T09:34:43;100239.06;;;28.07;18.87
11830;BME280;5972;42.134;24.718;2023-03-19T09:37:11;100240.75;;;28.18;19.20
11830;BME280;5972;42.134;24.718;2023-03-19T09:39:38;100236.25;;;27.82;19.18
11830;BME280;5972;42.134;24.718;2023-03-19T09:42:30;100241.38;;;27.01;19.53
11830;BME280;5972;42.134;24.718;2023-03-19T09:45:11;100235.59;;;26.79;20.25
11830;BME280;5972;42.134;24.718;2023-03-19T09:47:39;100226.38;;;25.06;21.17
11830;BME280;5972;42.134;24.718;2023-03-19T09:50:11;100219.28;;;25.05;21.58
11830;BME280;5972;42.134;24.718;2023-03-19T09:52:41;100219.78;;;25.39;21.48
11830;BME280;5972;42.134;24.718;2023-03-19T09:55:16;100203.28;;;25.72;21.41
11830;BME280;5972;42.134;24.718;2023-03-19T09:57:47;100211.78;;;25.81;21.69
11830;BME280;5972;42.134;24.718;2023-03-19T10:00:21;100208.63;;;25.03;22.40
11830;BME280;5972;42.134;24.718;2023-03-19T10:02:53;100198.41;;;25.20;22.63
11830;BME280;5972;42.134;24.718;2023-03-19T10:05:28;100205.91;;;24.57;22.83
11830;BME280;5972;42.134;24.718;2023-03-19T10:08:25;100194.66;;;24.87;22.92
11830;BME280;5972;42.134;24.718;2023-03-19T10:11:07;100186.53;;;24.57;23.64
11830;BME280;5972;42.134;24.718;2023-03-19T10:13:52;100180.63;;;24.78;23.12
11830;BME280;5972;42.134;24.718;2023-03-19T10:16:26;100177.19;;;24.47;23.22
11830;BME280;5972;42.134;24.718;2023-03-19T10:18:57;100179.03;;;24.77;23.22
11830;BME280;5972;42.134;24.718;2023-03-19T10:21:28;100145.66;;;24.44;23.51
11830;BME280;5972;42.134;24.718;2023-03-19T10:24:00;100157.34;;;25.15;22.99
11830;BME280;5972;42.134;24.718;2023-03-19T10:26:31;100162.13;;;24.28;23.81
11830;BME280;5972;42.134;24.718;2023-03-19T10:29:05;100144.94;;;25.23;23.77
11830;BME280;5972;42.134;24.718;2023-03-19T10:31:48;100143.66;;;25.63;22.87
11830;BME280;5972;42.134;24.718;2023-03-19T10:34:26;100136.25;;;25.21;23.45
11830;BME280;5972;42.134;24.718;2023-03-19T10:37:00;100134.16;;;25.45;23.24
11830;BME280;5972;42.134;24.718;2023-03-19T10:39:30;100123.22;;;25.57;23.91
11830;BME280;5972;42.134;24.718;2023-03-19T10:42:06;100118.91;;;25.37;23.92
11830;BME280;5972;42.134;24.718;2023-03-19T10:44:38;100104.66;;;24.39;24.56
11830;BME280;5972;42.134;24.718;2023-03-19T10:47:14;100106.72;;;24.09;25.15
11830;BME280;5972;42.134;24.718;2023-03-19T10:49:41;100109.50;;;23.58;25.55
11830;BME280;5972;42.134;24.718;2023-03-19T10:52:17;100106.16;;;23.71;25.18
11830;BME280;5972;42.134;24.718;2023-03-19T10:54:45;100096.13;;;23.57;25.88
11830;BME280;5972;42.134;24.718;2023-03-19T10:57:22;100098.44;;;23.01;26.04
11830;BME280;5972;42.134;24.718;2023-03-19T10:59:49;100091.34;;;22.66;26.45
11830;BME280;5972;42.134;24.718;2023-03-19T11:02:19;100088.28;;;22.95;26.40
11830;BME280;5972;42.134;24.718;2023-03-19T11:04:47;100090.47;;;22.39;26.79
11830;BME280;5972;42.134;24.718;2023-03-19T11:07:18;100078.19;;;22.06;27.08
11830;BME280;5972;42.134;24.718;2023-03-19T11:09:47;100073.09;;;21.49;28.04
11830;BME280;5972;42.134;24.718;2023-03-19T11:12:18;100080.00;;;21.02;28.47
11830;BME280;5972;42.134;24.718;2023-03-19T11:14:47;100052.38;;;20.33;29.20
11830;BME280;5972;42.134;24.718;2023-03-19T11:17:21;100062.94;;;20.24;29.70
11830;BME280;5972;42.134;24.718;2023-03-19T11:19:51;100057.47;;;20.20;29.84
11830;BME280;5972;42.134;24.718;2023-03-19T11:22:24;100050.44;;;20.05;30.01
11830;BME280;5972;42.134;24.718;2023-03-19T11:24:53;100051.59;;;19.51;30.72
11830;BME280;5972;42.134;24.718;2023-03-19T11:27:27;100041.44;;;19.83;30.56
11830;BME280;5972;42.134;24.718;2023-03-19T11:29:54;100038.66;;;19.87;30.72
11830;BME280;5972;42.134;24.718;2023-03-19T11:32:50;100037.41;;;20.45;30.13
11830;BME280;5972;42.134;24.718;2023-03-19T11:35:22;100034.28;;;20.25;30.59
11830;BME280;5972;42.134;24.718;2023-03-19T11:37:55;100010.72;;;20.24;30.58
11830;BME280;5972;42.134;24.718;2023-03-19T11:40:33;100024.56;;;19.53;31.04
11830;BME280;5972;42.134;24.718;2023-03-19T11:43:29;100033.88;;;19.24;31.59
11830;BME280;5972;42.134;24.718;2023-03-19T11:46:09;100025.47;;;18.67;32.54
11830;BME280;5972;42.134;24.718;2023-03-19T11:51:45;99982.31;;;18.43;32.66
11830;BME280;5972;42.134;24.718;2023-03-19T11:54:21;100018.91;;;18.82;32.66
11830;BME280;5972;42.134;24.718;2023-03-19T11:56:56;100016.91;;;18.79;32.76
11830;BME280;5972;42.134;24.718;2023-03-19T11:59:44;100017.38;;;19.02;32.62
11830;BME280;5972;42.134;24.718;2023-03-19T12:02:47;99990.31;;;18.87;32.83
11830;BME280;5972;42.134;24.718;2023-03-19T12:05:23;100005.59;;;18.91;32.69
11830;BME280;5972;42.134;24.718;2023-03-19T12:08:06;100006.38;;;18.81;32.77
11830;BME280;5972;42.134;24.718;2023-03-19T12:10:54;100002.38;;;18.61;33.38
11830;BME280;5972;42.134;24.718;2023-03-19T12:13:54;99991.00;;;18.62;33.15
11830;BME280;5972;42.134;24.718;2023-03-19T12:16:30;99999.28;;;18.66;33.41
11830;BME280;5972;42.134;24.718;2023-03-19T12:22:08;100002.84;;;18.81;33.09
11830;BME280;5972;42.134;24.718;2023-03-19T12:24:51;99991.00;;;18.55;33.47
11830;BME280;5972;42.134;24.718;2023-03-19T12:27:28;99993.03;;;18.80;33.22
11830;BME280;5972;42.134;24.718;2023-03-19T12:30:01;99994.94;;;18.65;33.32
11830;BME280;5972;42.134;24.718;2023-03-19T12:32:41;99987.09;;;18.63;33.27
11830;BME280;5972;42.134;24.718;2023-03-19T12:35:13;99988.34;;;18.84;33.06
11830;BME280;5972;42.134;24.718;2023-03-19T12:37:51;99980.13;;;18.91;32.91
11830;BME280;5972;42.134;24.718;2023-03-19T12:40:25;99973.91;;;19.08;33.02
11830;BME280;5972;42.134;24.718;2023-03-19T12:42:56;99966.13;;;19.45;32.35
11830;BME280;5972;42.134;24.718;2023-03-19T12:45:28;99964.16;;;19.71;31.94
11830;BME280;5972;42.134;24.718;2023-03-19T12:48:00;99964.50;;;19.98;31.80
11830;BME280;5972;42.134;24.718;2023-03-19T12:50:30;99957.00;;;20.09;31.86
11830;BME280;5972;42.134;24.718;2023-03-19T12:53:01;99936.22;;;20.01;31.67
11830;BME280;5972;42.134;24.718;2023-03-19T12:55:36;99948.06;;;19.69;31.84
11830;BME280;5972;42.134;24.718;2023-03-19T12:58:11;99944.09;;;18.82;32.94
11830;BME280;5972;42.134;24.718;2023-03-19T13:00:47;99941.34;;;18.82;33.05
11830;BME280;5972;42.134;24.718;2023-03-19T13:03:17;99923.22;;;18.52;33.56
11830;BME280;5972;42.134;24.718;2023-03-19T13:05:54;99937.41;;;18.65;33.58
11830;BME280;5972;42.134;24.718;2023-03-19T13:08:28;99936.63;;;18.72;33.50
11830;BME280;5972;42.134;24.718;2023-03-19T13:10:58;99923.72;;;19.00;33.16